Time;durP1;ratioP1;P1;durP2;ratioP2;P2;SDS_P1;SDS_P2;PMS_P1;PMS_P2;Temp;Humidity;BMP_temperature;BMP_pressure;BME280_temperature;BME280_humidity;BME280_pressure;Samples;Min_cycle;Max_cycle;Signal;HPM_P1;HPM_P2
2023/09/09 00:00:55;;;;;;;10.13;8.30;;;;;;;23.74;66.69;101565.81;4987028;28;20041;-56
2023/09/09 00:03:22;;;;;;;12.38;8.48;;;;;;;23.72;66.34;101560.56;4986909;28;20129;-56
2023/09/09 00:05:48;;;;;;;9.65;7.38;;;;;;;23.72;66.64;101565.13;4986777;28;20038;-56
2023/09/09 00:08:13;;;;;;;8.73;7.82;;;;;;;23.71;66.52;101552.56;4986478;28;20096;-56
2023/09/09 00:10:39;;;;;;;9.60;8.40;;;;;;;23.69;66.67;101558.16;4986155;28;20030;-57
2023/09/09 00:13:05;;;;;;;10.82;7.80;;;;;;;23.69;66.24;101554.59;4987524;28;20034;-56
2023/09/09 00:15:32;;;;;;;12.45;6.57;;;;;;;23.68;66.04;101552.88;4987425;28;20047;-56
2023/09/09 00:17:59;;;;;;;9.75;7.15;;;;;;;23.68;66.19;101553.72;4986866;28;20116;-57
2023/09/09 00:20:36;;;;;;;9.50;7.28;;;;;;;23.67;65.98;101545.75;4987658;28;20039;-56
2023/09/09 00:23:07;;;;;;;10.85;8.10;;;;;;;23.65;66.31;101551.34;4987818;28;20384;-56
2023/09/09 00:25:36;;;;;;;10.98;8.07;;;;;;;23.64;66.32;101546.94;4987250;28;20037;-56
2023/09/09 00:28:02;;;;;;;9.77;7.38;;;;;;;23.64;65.95;101554.25;4987137;28;20121;-56
2023/09/09 00:30:28;;;;;;;9.65;7.88;;;;;;;23.64;66.25;101555.09;4986434;28;20031;-57
2023/09/09 00:32:54;;;;;;;10.00;8.00;;;;;;;23.62;66.38;101546.25;4986637;28;20051;-56
2023/09/09 00:35:19;;;;;;;9.80;8.02;;;;;;;23.61;66.05;101542.69;4986920;28;20031;-56
2023/09/09 00:37:45;;;;;;;9.07;7.60;;;;;;;23.61;65.90;101544.56;4981606;28;20062;-56
2023/09/09 00:40:11;;;;;;;8.80;7.90;;;;;;;23.61;66.08;101544.56;4987730;28;20033;-57
2023/09/09 00:42:36;;;;;;;11.32;8.02;;;;;;;23.60;66.01;101540.13;4987702;28;20041;-56
2023/09/09 00:45:02;;;;;;;9.75;7.90;;;;;;;23.58;66.13;101543.00;4987002;28;20463;-56
2023/09/09 00:47:27;;;;;;;10.35;9.30;;;;;;;23.58;66.02;101542.16;4989902;28;20399;-56
2023/09/09 00:49:53;;;;;;;10.38;9.32;;;;;;;23.57;66.18;101545.88;4988426;28;20043;-56
2023/09/09 00:52:18;;;;;;;12.20;9.48;;;;;;;23.56;66.25;101539.59;4989983;28;20121;-56
2023/09/09 00:54:44;;;;;;;12.88;8.82;;;;;;;23.56;65.79;101541.47;4989988;28;20044;-56
2023/09/09 00:57:11;;;;;;;14.10;10.57;;;;;;;23.56;65.95;101536.88;4990501;28;20424;-57
2023/09/09 00:59:36;;;;;;;12.63;10.90;;;;;;;23.55;65.92;101543.34;4990611;28;20117;-56
2023/09/09 01:02:02;;;;;;;14.45;11.43;;;;;;;23.55;66.14;101546.06;4990512;28;20451;-56
2023/09/09 01:04:28;;;;;;;15.02;11.85;;;;;;;23.55;66.13;101547.91;4990283;28;20034;-56
2023/09/09 01:06:54;;;;;;;14.05;11.35;;;;;;;23.54;66.35;101552.50;4989742;28;20046;-56
2023/09/09 01:09:20;;;;;;;16.38;10.75;;;;;;;23.53;66.02;101550.84;4990599;28;20026;-56
2023/09/09 01:11:45;;;;;;;11.55;10.20;;;;;;;23.53;66.14;101550.84;4990762;28;20034;-56
2023/09/09 01:14:12;;;;;;;12.82;10.23;;;;;;;23.53;65.92;101552.69;4989485;28;20544;-56
2023/09/09 01:16:39;;;;;;;12.00;10.80;;;;;;;23.50;65.95;101551.16;4989864;28;20026;-56
2023/09/09 01:19:08;;;;;;;14.68;9.75;;;;;;;23.50;65.62;101550.31;4989454;28;20038;-56
2023/09/09 01:21:35;;;;;;;14.07;11.02;;;;;;;23.49;65.99;101549.44;4988105;28;20039;-56
2023/09/09 01:24:00;;;;;;;12.48;11.18;;;;;;;23.50;65.68;101539.44;4989204;28;20065;-57
2023/09/09 01:26:26;;;;;;;11.75;10.52;;;;;;;23.49;65.88;101543.16;4972254;28;20058;-56
2023/09/09 01:28:51;;;;;;;13.63;11.70;;;;;;;23.47;65.54;101546.03;4994297;28;20034;-57
2023/09/09 01:31:17;;;;;;;13.68;11.27;;;;;;;23.47;65.57;101547.91;4990400;28;20038;-56
2023/09/09 01:33:42;;;;;;;14.60;12.07;;;;;;;23.46;65.75;101547.06;4989763;28;20075;-57
2023/09/09 01:36:09;;;;;;;16.83;12.73;;;;;;;23.46;65.47;101547.06;4991127;28;20068;-56
2023/09/09 01:38:35;;;;;;;14.02;11.30;;;;;;;23.45;65.89;101539.06;4990525;28;20030;-56
2023/09/09 01:41:02;;;;;;;16.27;11.57;;;;;;;23.43;65.63;101533.78;4990263;28;20034;-56
2023/09/09 01:43:28;;;;;;;14.73;11.40;;;;;;;23.43;65.70;101533.78;4989968;28;20046;-57
2023/09/09 01:45:53;;;;;;;12.30;11.10;;;;;;;23.43;65.49;101544.66;4992767;28;20042;-57
2023/09/09 01:48:18;;;;;;;14.48;11.18;;;;;;;23.42;65.56;101538.38;4989436;28;20037;-56
2023/09/09 01:50:45;;;;;;;13.43;10.95;;;;;;;23.40;65.40;101543.16;4988548;28;20026;-56
2023/09/09 01:53:10;;;;;;;11.55;10.32;;;;;;;23.39;65.53;101541.44;4991704;28;20053;-57
2023/09/09 01:55:36;;;;;;;15.30;11.07;;;;;;;23.40;65.58;101537.72;4990134;28;20381;-56
2023/09/09 01:58:01;;;;;;;13.55;10.55;;;;;;;23.39;64.96;101537.88;4988568;28;20075;-57
2023/09/09 02:00:27;;;;;;;12.02;10.73;;;;;;;23.38;65.22;101541.59;4989417;28;20160;-56
2023/09/09 02:02:54;;;;;;;13.90;11.68;;;;;;;23.36;65.40;101530.91;4994702;28;20574;-56
2023/09/09 02:05:20;;;;;;;11.63;10.43;;;;;;;23.35;65.12;101531.91;4990242;28;20034;-56
2023/09/09 02:07:45;;;;;;;10.82;9.80;;;;;;;23.34;64.65;101530.22;4988589;28;20038;-56
2023/09/09 02:10:10;;;;;;;15.68;10.50;;;;;;;23.33;65.21;101531.22;4988335;28;20054;-56
2023/09/09 02:12:36;;;;;;;14.52;10.40;;;;;;;23.33;65.05;101533.94;4988291;28;20041;-56
2023/09/09 02:15:02;;;;;;;12.10;10.52;;;;;;;23.33;65.00;101533.94;4970442;28;20119;-56
2023/09/09 02:17:27;;;;;;;14.82;10.60;;;;;;;23.32;64.61;101531.38;4987668;28;20481;-56
2023/09/09 02:19:55;;;;;;;13.27;11.07;;;;;;;23.31;64.69;101527.81;4989178;28;20109;-57
2023/09/09 02:22:21;;;;;;;12.73;10.50;;;;;;;23.32;64.43;101534.09;4990566;28;20042;-56
2023/09/09 02:24:47;;;;;;;14.02;10.90;;;;;;;23.30;64.48;101534.25;4997364;28;20030;-56
2023/09/09 02:27:12;;;;;;;13.38;11.68;;;;;;;23.28;64.92;101530.84;4990048;28;20460;-56
2023/09/09 02:29:37;;;;;;;14.70;11.15;;;;;;;23.29;65.05;101537.16;4996024;28;20030;-56
2023/09/09 02:32:03;;;;;;;16.58;11.98;;;;;;;23.27;64.50;101536.47;4988648;28;20518;-56
2023/09/09 02:34:28;;;;;;;12.88;11.48;;;;;;;23.27;64.61;101539.19;4988879;28;20037;-56
2023/09/09 02:37:17;;;;;;;15.18;11.77;;;;;;;23.28;64.82;101535.44;4988803;28;20432;-57
2023/09/09 02:39:44;;;;;;;13.77;11.95;;;;;;;23.25;64.34;101542.06;4988024;28;20070;-57
2023/09/09 02:42:18;;;;;;;15.32;11.77;;;;;;;23.24;64.53;101534.94;4988375;28;20038;-57
2023/09/09 02:44:43;;;;;;;15.45;12.98;;;;;;;23.21;64.54;101536.13;4988750;28;20497;-56
2023/09/09 02:47:10;;;;;;;15.45;12.20;;;;;;;23.21;64.36;101532.56;4988881;28;20027;-56
2023/09/09 02:49:37;;;;;;;15.25;12.90;;;;;;;23.20;64.53;101533.56;4987879;28;20109;-56
2023/09/09 02:52:03;;;;;;;18.52;14.07;;;;;;;23.19;64.71;101538.16;4993932;28;20034;-56
2023/09/09 02:54:28;;;;;;;17.15;13.55;;;;;;;23.20;64.86;101544.44;4987771;28;20114;-56
2023/09/09 02:56:53;;;;;;;18.45;15.73;;;;;;;23.19;64.54;101537.31;4987035;28;20118;-56
2023/09/09 02:59:19;;;;;;;16.15;14.30;;;;;;;23.19;64.82;101531.88;4988263;28;20472;-56
2023/09/09 03:01:44;;;;;;;20.35;16.58;;;;;;;23.19;64.69;101537.31;4988558;28;20477;-56
2023/09/09 03:04:11;;;;;;;23.35;17.17;;;;;;;23.17;64.67;101534.75;4989935;28;20039;-56
2023/09/09 03:06:37;;;;;;;23.23;18.48;;;;;;;23.19;65.08;101531.88;4989215;28;20117;-56
2023/09/09 03:09:03;;;;;;;28.05;19.95;;;;;;;23.17;64.93;101532.03;4988684;28;20235;-56
2023/09/09 03:11:28;;;;;;;25.45;19.40;;;;;;;23.17;64.76;101531.16;4988329;28;20053;-56
2023/09/09 03:13:54;;;;;;;27.10;20.25;;;;;;;23.18;65.24;101532.88;4988345;28;20038;-56
2023/09/09 03:16:19;;;;;;;28.95;21.25;;;;;;;23.18;64.75;101535.59;4994578;28;20539;-57
2023/09/09 03:18:44;;;;;;;25.50;21.25;;;;;;;23.16;65.34;101529.47;4987839;28;20038;-56
2023/09/09 03:21:10;;;;;;;27.27;23.23;;;;;;;23.16;65.13;101532.19;4991767;28;20072;-56
2023/09/09 03:23:36;;;;;;;27.70;22.65;;;;;;;23.15;65.26;101535.91;4989456;28;20029;-57
2023/09/09 03:26:04;;;;;;;28.60;22.77;;;;;;;23.15;65.09;101530.47;4986905;28;20129;-56
2023/09/09 03:28:30;;;;;;;26.02;22.73;;;;;;;23.15;65.02;101530.47;4986851;28;20109;-56
2023/09/09 03:30:57;;;;;;;28.73;22.65;;;;;;;23.13;65.25;101535.22;4986481;28;20157;-56
2023/09/09 03:33:23;;;;;;;32.08;23.75;;;;;;;23.12;65.27;101537.09;4985333;28;20058;-56
2023/09/09 03:35:48;;;;;;;29.73;24.13;;;;;;;23.11;64.83;101535.38;4987186;28;20117;-56
2023/09/09 03:38:14;;;;;;;34.05;24.38;;;;;;;23.12;64.80;101530.81;4988861;28;20053;-56
2023/09/09 03:40:39;;;;;;;30.20;25.50;;;;;;;23.11;65.46;101527.22;4988475;28;20539;-56
2023/09/09 03:43:05;;;;;;;31.67;26.70;;;;;;;23.10;65.29;101527.41;4987881;28;20113;-56
2023/09/09 03:45:31;;;;;;;30.67;25.42;;;;;;;23.11;65.37;101524.50;4987368;28;20384;-56
2023/09/09 03:47:56;;;;;;;33.55;26.35;;;;;;;23.10;65.32;101530.13;4992198;28;20495;-56
2023/09/09 03:50:21;;;;;;;31.63;26.23;;;;;;;23.10;64.86;101533.69;4987118;28;20042;-56
2023/09/09 03:52:47;;;;;;;32.95;26.42;;;;;;;23.10;65.09;101538.28;4986874;28;20473;-56
2023/09/09 03:55:12;;;;;;;35.60;26.60;;;;;;;23.09;65.09;101542.84;4987667;28;20041;-56
2023/09/09 03:57:38;;;;;;;30.80;26.92;;;;;;;23.07;65.25;101534.00;4987498;28;20034;-56
2023/09/09 04:00:09;;;;;;;30.42;25.42;;;;;;;23.07;65.34;101538.59;4987879;28;20085;-56
2023/09/09 04:02:34;;;;;;;34.10;27.60;;;;;;;23.06;65.27;101540.47;4987880;28;20026;-56
2023/09/09 04:04:59;;;;;;;29.65;25.30;;;;;;;23.06;64.66;101542.34;4987043;28;20038;-56
2023/09/09 04:07:25;;;;;;;31.15;25.67;;;;;;;23.06;65.34;101545.06;4987010;28;20392;-57
2023/09/09 04:09:50;;;;;;;29.73;25.00;;;;;;;23.06;64.60;101547.78;4986664;28;20041;-56
2023/09/09 04:12:16;;;;;;;33.03;23.58;;;;;;;23.03;64.93;101547.06;4986845;28;20068;-56
2023/09/09 04:14:41;;;;;;;28.88;23.10;;;;;;;23.03;64.87;101543.50;4987086;28;20030;-56
2023/09/09 04:17:07;;;;;;;27.05;23.00;;;;;;;23.02;64.66;101545.34;4985707;28;20399;-56
2023/09/09 04:19:33;;;;;;;27.80;22.40;;;;;;;22.99;64.71;101542.94;4985525;28;20220;-56
2023/09/09 04:21:58;;;;;;;26.80;21.63;;;;;;;23.00;64.08;101538.38;4991791;28;20033;-56
2023/09/09 04:24:24;;;;;;;24.52;21.25;;;;;;;22.98;64.60;101543.97;4993433;28;20042;-56
2023/09/09 04:26:49;;;;;;;24.17;21.58;;;;;;;22.97;64.58;101544.97;4993957;28;20114;-56
2023/09/09 04:29:14;;;;;;;26.35;21.92;;;;;;;22.96;64.26;101539.69;4994143;28;20035;-56
2023/09/09 04:31:40;;;;;;;27.33;21.92;;;;;;;22.96;64.00;101539.69;4993707;28;20424;-56
2023/09/09 04:34:05;;;;;;;27.17;20.88;;;;;;;22.94;63.82;101539.88;4993567;28;20034;-56
2023/09/09 04:36:31;;;;;;;24.13;20.73;;;;;;;22.92;63.42;101544.59;4993628;28;20122;-56
2023/09/09 04:38:56;;;;;;;24.05;19.45;;;;;;;22.92;63.42;101539.16;4993209;28;20080;-56
2023/09/09 04:41:21;;;;;;;21.92;18.63;;;;;;;22.90;63.70;101545.78;4991539;28;20496;-56
2023/09/09 04:43:47;;;;;;;20.23;18.13;;;;;;;22.89;63.59;101544.94;4992878;28;20496;-56
2023/09/09 04:46:12;;;;;;;24.10;18.08;;;;;;;22.90;63.19;101548.50;4992828;28;20034;-56
2023/09/09 04:48:38;;;;;;;20.50;18.27;;;;;;;22.87;63.34;101548.84;4992393;28;20045;-56
2023/09/09 04:51:03;;;;;;;27.20;19.33;;;;;;;22.85;63.07;101546.28;4991611;28;20035;-56
2023/09/09 04:53:28;;;;;;;22.42;18.38;;;;;;;22.84;63.56;101556.28;4992823;28;20042;-56
2023/09/09 04:55:54;;;;;;;21.33;18.35;;;;;;;22.84;63.07;101552.72;4993450;28;20118;-56
2023/09/09 04:58:20;;;;;;;20.50;18.30;;;;;;;22.83;63.10;101559.16;4993423;28;20050;-56
2023/09/09 05:00:45;;;;;;;20.15;17.50;;;;;;;22.81;62.98;101553.06;4994595;28;20034;-56
2023/09/09 05:03:11;;;;;;;20.05;17.45;;;;;;;22.80;63.07;101554.91;4993737;28;20033;-56
2023/09/09 05:05:36;;;;;;;19.20;16.55;;;;;;;22.81;63.12;101555.78;4993538;28;20038;-56
2023/09/09 05:08:01;;;;;;;21.20;16.23;;;;;;;22.81;63.13;101550.34;4996677;28;20048;-56
2023/09/09 05:10:27;;;;;;;17.10;14.32;;;;;;;22.83;62.91;101553.75;4993388;28;20034;-56
2023/09/09 05:12:53;;;;;;;16.75;14.07;;;;;;;22.86;62.96;101558.00;4996658;28;20065;-56
2023/09/09 05:15:19;;;;;;;15.77;13.38;;;;;;;22.87;62.88;101554.28;4994959;28;20041;-57
2023/09/09 05:17:45;;;;;;;16.63;11.60;;;;;;;22.89;62.67;101563.94;4994387;28;20396;-56
2023/09/09 05:20:11;;;;;;;14.45;11.98;;;;;;;22.90;62.48;101562.91;4991418;28;20037;-56
2023/09/09 05:22:36;;;;;;;11.75;10.65;;;;;;;22.92;62.35;101568.19;4990218;28;20035;-56
2023/09/09 05:25:02;;;;;;;16.30;10.82;;;;;;;22.95;62.69;101568.72;4991561;28;20062;-56
2023/09/09 05:27:28;;;;;;;12.48;11.20;;;;;;;22.95;62.61;101557.03;4992079;28;20043;-56
2023/09/09 05:29:53;;;;;;;11.88;10.48;;;;;;;22.96;62.76;101559.59;4991587;28;20089;-57
2023/09/09 05:32:19;;;;;;;11.52;9.75;;;;;;;22.97;62.32;101563.13;4990238;28;20047;-57
2023/09/09 05:34:44;;;;;;;11.40;9.98;;;;;;;22.97;62.29;101558.56;4987930;28;20473;-56
2023/09/09 05:37:09;;;;;;;10.40;9.25;;;;;;;22.98;62.73;101567.53;4991447;28;20077;-56
2023/09/09 05:39:35;;;;;;;11.20;10.07;;;;;;;22.98;62.85;101575.69;4996947;28;20091;-56
2023/09/09 05:42:00;;;;;;;9.80;8.90;;;;;;;22.99;62.29;101575.53;4992830;28;20038;-56
2023/09/09 05:44:26;;;;;;;10.27;8.57;;;;;;;23.00;62.15;101571.81;4993277;28;20066;-56
2023/09/09 05:46:51;;;;;;;9.30;8.20;;;;;;;23.01;61.89;101578.09;4990736;28;20049;-57
2023/09/09 05:49:16;;;;;;;8.82;7.93;;;;;;;23.01;61.34;101573.50;4990251;28;20081;-56
2023/09/09 05:51:42;;;;;;;9.77;7.78;;;;;;;23.02;62.10;101569.78;4988189;28;20043;-56
2023/09/09 05:54:07;;;;;;;8.80;7.90;;;;;;;23.02;61.88;101580.66;4987857;28;20038;-58
2023/09/09 05:56:32;;;;;;;8.25;7.55;;;;;;;23.04;61.63;101580.53;4987651;28;20114;-56
2023/09/09 05:58:58;;;;;;;9.43;8.43;;;;;;;23.05;61.93;101578.66;4988228;28;20081;-56
2023/09/09 06:01:23;;;;;;;6.35;5.75;;;;;;;23.06;61.48;101585.81;4989428;28;20118;-56
2023/09/09 06:03:54;;;;;;;10.20;8.93;;;;;;;23.06;62.39;101581.22;4990097;28;20084;-56
2023/09/09 06:06:20;;;;;;;10.57;9.50;;;;;;;23.07;62.08;101588.34;4990028;28;20510;-56
2023/09/09 06:08:45;;;;;;;8.77;7.80;;;;;;;23.07;62.49;101590.22;4989101;28;20058;-56
2023/09/09 06:11:11;;;;;;;10.48;9.48;;;;;;;23.08;63.17;101592.78;4988693;28;20076;-57
2023/09/09 06:13:37;;;;;;;9.90;8.90;;;;;;;23.07;61.86;101593.75;4989040;28;20467;-56
2023/09/09 06:16:02;;;;;;;9.00;8.20;;;;;;;23.09;62.14;101597.16;4987535;28;20030;-56
2023/09/09 06:18:28;;;;;;;9.18;8.30;;;;;;;23.09;62.09;101591.75;4987179;28;20030;-56
2023/09/09 06:20:53;;;;;;;12.05;10.73;;;;;;;23.11;62.32;101594.31;4987041;28;20412;-58
2023/09/09 06:23:19;;;;;;;11.30;10.20;;;;;;;23.11;62.22;101603.28;4987263;28;20038;-57
2023/09/09 06:25:44;;;;;;;12.40;10.68;;;;;;;23.11;61.76;101605.16;4986752;28;20038;-57
2023/09/09 06:28:09;;;;;;;11.35;10.27;;;;;;;23.09;61.66;101604.47;4986919;28;20063;-55
2023/09/09 06:30:35;;;;;;;8.02;7.25;;;;;;;23.10;61.39;101604.31;4989084;28;20042;-54
2023/09/09 06:33:02;;;;;;;12.15;9.07;;;;;;;23.10;62.22;101614.34;4988792;28;20066;-55
2023/09/09 06:35:28;;;;;;;11.60;10.52;;;;;;;23.11;61.80;101616.88;4987557;28;20144;-54
2023/09/09 06:37:53;;;;;;;10.93;9.10;;;;;;;23.11;61.78;101616.88;4988573;28;20074;-55
2023/09/09 06:40:18;;;;;;;15.40;13.85;;;;;;;23.12;63.37;101617.75;4988317;28;20038;-54
2023/09/09 06:42:44;;;;;;;9.15;8.35;;;;;;;23.12;62.26;101621.31;4987832;28;20030;-54
2023/09/09 06:45:12;;;;;;;10.70;9.70;;;;;;;23.12;62.04;101615.88;4987696;28;20088;-54
2023/09/09 06:47:38;;;;;;;11.90;10.70;;;;;;;23.12;62.51;101620.47;4987543;28;20033;-54
2023/09/09 06:50:04;;;;;;;11.05;9.95;;;;;;;23.12;62.33;101620.47;4987576;28;20046;-54
2023/09/09 06:52:30;;;;;;;9.55;8.65;;;;;;;23.11;61.91;101622.31;4988186;28;20077;-55
2023/09/09 06:54:55;;;;;;;10.85;9.85;;;;;;;23.12;62.08;101624.03;4984176;28;20026;-55
2023/09/09 06:57:20;;;;;;;11.50;10.27;;;;;;;23.12;61.82;101626.75;4989962;28;20362;-54
2023/09/09 06:59:46;;;;;;;9.73;8.93;;;;;;;23.12;62.49;101625.91;4990043;28;20483;-55
2023/09/09 07:02:11;;;;;;;10.55;9.45;;;;;;;23.13;62.42;101625.75;4989079;28;20029;-56
2023/09/09 07:04:36;;;;;;;10.32;9.32;;;;;;;23.13;61.92;101624.88;4988554;28;20072;-56
2023/09/09 07:07:02;;;;;;;11.27;10.15;;;;;;;23.14;62.24;101634.72;4988492;28;20034;-56
2023/09/09 07:09:27;;;;;;;10.98;9.98;;;;;;;23.14;62.14;101640.16;4988436;28;20029;-56
2023/09/09 07:11:52;;;;;;;15.07;13.27;;;;;;;23.15;62.32;101639.13;4988585;28;20042;-56
2023/09/09 07:14:18;;;;;;;10.63;9.63;;;;;;;23.15;61.71;101644.56;4982341;28;20034;-56
2023/09/09 07:16:43;;;;;;;12.00;10.45;;;;;;;23.15;61.69;101636.44;4988976;28;20049;-56
2023/09/09 07:19:09;;;;;;;10.70;9.60;;;;;;;23.14;62.33;101643.72;4993237;28;20033;-56
2023/09/09 07:21:34;;;;;;;12.43;11.13;;;;;;;23.15;61.57;101644.56;4987285;28;20045;-56
2023/09/09 07:23:59;;;;;;;11.63;10.48;;;;;;;23.15;61.63;101641.84;4987233;28;20089;-57
2023/09/09 07:26:25;;;;;;;15.55;13.95;;;;;;;23.14;62.73;101649.16;4987799;28;20081;-57
2023/09/09 07:28:50;;;;;;;13.45;12.05;;;;;;;23.16;62.13;101649.00;4992491;28;20089;-57
2023/09/09 07:31:16;;;;;;;13.40;12.00;;;;;;;23.15;62.75;101645.44;4987643;28;20035;-57
2023/09/09 07:33:41;;;;;;;11.70;10.50;;;;;;;23.16;62.04;101647.13;4986706;28;20412;-57
2023/09/09 07:36:06;;;;;;;11.18;10.07;;;;;;;23.16;62.60;101646.28;4986735;28;20396;-57
2023/09/09 07:38:32;;;;;;;8.05;7.35;;;;;;;23.16;62.10;101651.72;4987783;28;20029;-57
2023/09/09 07:40:58;;;;;;;11.05;9.88;;;;;;;23.16;62.14;101659.88;4987256;28;20050;-57
2023/09/09 07:43:24;;;;;;;10.32;9.43;;;;;;;23.16;62.53;101657.16;4988055;28;20045;-57
2023/09/09 07:45:51;;;;;;;10.10;9.20;;;;;;;23.16;62.46;101663.44;4987520;28;20481;-57
2023/09/09 07:48:17;;;;;;;10.45;9.45;;;;;;;23.17;62.44;101661.56;4988106;28;20116;-57
2023/09/09 07:50:53;;;;;;;10.93;9.82;;;;;;;23.18;62.12;101660.56;4988200;28;20470;-57
2023/09/09 07:53:19;;;;;;;10.02;9.02;;;;;;;23.18;62.41;101663.28;4988013;28;20066;-56
2023/09/09 07:55:47;;;;;;;11.98;10.77;;;;;;;23.17;62.14;101665.16;4987154;28;20687;-57
2023/09/09 07:58:13;;;;;;;11.27;10.10;;;;;;;23.18;62.79;101666.00;4987138;28;20487;-57
2023/09/09 08:00:41;;;;;;;10.30;9.30;;;;;;;23.18;62.27;101663.28;4987549;28;20366;-57
2023/09/09 08:03:06;;;;;;;11.80;10.60;;;;;;;23.17;62.60;101667.88;4986396;28;20096;-57
2023/09/09 08:05:32;;;;;;;11.05;10.05;;;;;;;23.18;62.44;101669.56;4986553;28;20030;-57
2023/09/09 08:07:57;;;;;;;10.60;9.65;;;;;;;23.19;62.58;101662.28;4986294;28;20469;-57
2023/09/09 08:10:23;;;;;;;11.20;10.13;;;;;;;23.19;63.10;101662.28;4992363;28;20045;-60
2023/09/09 08:12:48;;;;;;;12.75;11.30;;;;;;;23.19;63.30;101667.72;4986039;28;20035;-57
2023/09/09 08:15:13;;;;;;;12.60;10.98;;;;;;;23.19;61.92;101675.88;4986727;28;20054;-57
2023/09/09 08:17:39;;;;;;;24.67;20.98;;;;;;;23.19;63.63;101673.16;4986424;28;20031;-57
2023/09/09 08:20:07;;;;;;;17.75;15.95;;;;;;;23.19;63.33;101674.00;4987691;28;20125;-57
2023/09/09 08:22:33;;;;;;;21.50;19.25;;;;;;;23.19;63.25;101678.59;4993783;28;20035;-56
2023/09/09 08:24:59;;;;;;;22.00;19.73;;;;;;;23.17;63.78;101676.03;4987235;28;20165;-57
2023/09/09 08:27:25;;;;;;;16.65;14.98;;;;;;;23.18;63.39;101679.59;4987362;28;20105;-56
2023/09/09 08:29:50;;;;;;;18.23;16.27;;;;;;;23.18;63.60;101674.16;4986864;28;20109;-57
2023/09/09 08:32:16;;;;;;;19.60;17.50;;;;;;;23.19;63.39;101673.16;4986683;28;20047;-57
2023/09/09 08:34:41;;;;;;;17.48;15.68;;;;;;;23.18;63.33;101672.28;4986378;28;20134;-57
2023/09/09 08:37:07;;;;;;;13.13;11.82;;;;;;;23.19;62.93;101684.00;4987088;28;20042;-57
2023/09/09 08:39:32;;;;;;;13.80;12.40;;;;;;;23.20;62.38;101674.84;4987981;28;20074;-57
2023/09/09 08:42:10;;;;;;;22.55;20.15;;;;;;;23.21;64.29;101682.00;4987341;28;20114;-57
2023/09/09 08:45:09;;;;;;;15.82;13.77;;;;;;;23.22;63.19;101680.97;4986257;28;20038;-57
2023/09/09 08:47:36;;;;;;;24.60;22.00;;;;;;;23.22;64.43;101680.97;4985916;28;20054;-56
2023/09/09 08:50:04;;;;;;;27.80;23.63;;;;;;;23.22;64.66;101687.25;4986102;28;20078;-56
2023/09/09 08:52:29;;;;;;;29.63;26.45;;;;;;;23.24;65.26;101687.09;4986400;28;20035;-57
2023/09/09 08:54:55;;;;;;;21.90;19.55;;;;;;;23.25;64.57;101691.53;4986639;28;20042;-56
2023/09/09 08:57:20;;;;;;;26.50;23.65;;;;;;;23.25;65.39;101691.53;4986036;28;20505;-57
2023/09/09 08:59:47;;;;;;;25.98;23.23;;;;;;;23.26;65.58;101693.19;4987450;28;20030;-57
2023/09/09 09:02:13;;;;;;;26.42;23.63;;;;;;;23.26;65.25;101690.50;4986935;28;20051;-57
2023/09/09 09:04:39;;;;;;;27.13;24.23;;;;;;;23.27;65.62;101689.50;4986349;28;20026;-57
2023/09/09 09:07:08;;;;;;;27.00;23.88;;;;;;;23.28;65.88;101698.47;4993172;28;20046;-57
2023/09/09 09:09:34;;;;;;;28.10;24.88;;;;;;;23.29;66.02;101700.22;4989772;28;20500;-56
2023/09/09 09:12:01;;;;;;;27.52;23.88;;;;;;;23.29;65.83;101701.06;4990940;28;20465;-56
2023/09/09 09:14:26;;;;;;;26.63;22.60;;;;;;;23.30;66.11;101699.19;4991409;28;20027;-56
2023/09/09 09:16:53;;;;;;;25.50;22.77;;;;;;;23.31;66.18;101696.31;4991032;28;20052;-57
2023/09/09 09:19:25;;;;;;;25.27;22.67;;;;;;;23.31;66.06;101699.03;4990801;28;20034;-56
2023/09/09 09:21:51;;;;;;;25.15;22.50;;;;;;;23.31;65.96;101701.75;4990232;28;20034;-56
2023/09/09 09:24:27;;;;;;;27.55;22.83;;;;;;;23.32;65.70;101698.03;4989954;28;20034;-57
2023/09/09 09:26:54;;;;;;;27.20;23.98;;;;;;;23.33;65.81;101697.00;4989452;28;20358;-56
2023/09/09 09:29:20;;;;;;;24.80;21.95;;;;;;;23.34;66.18;101698.72;4989063;28;20034;-57
2023/09/09 09:31:51;;;;;;;24.33;21.70;;;;;;;23.34;65.75;101703.28;4988914;28;20046;-57
2023/09/09 09:34:18;;;;;;;25.27;22.63;;;;;;;23.35;66.37;101694.97;4989156;28;20505;-57
2023/09/09 09:36:44;;;;;;;24.85;21.85;;;;;;;23.35;66.33;101700.41;4989702;28;20042;-57
2023/09/09 09:39:10;;;;;;;21.52;18.88;;;;;;;23.36;66.33;101695.81;4989275;28;20031;-57
2023/09/09 09:41:38;;;;;;;23.25;20.17;;;;;;;23.36;66.23;101691.25;4989119;28;20429;-56
2023/09/09 09:44:16;;;;;;;21.63;18.77;;;;;;;23.36;66.24;101693.97;4989689;28;20394;-57
2023/09/09 09:46:41;;;;;;;20.38;17.63;;;;;;;23.38;66.07;101693.78;4989532;28;20039;-57
2023/09/09 09:49:08;;;;;;;20.88;17.40;;;;;;;23.38;66.25;101693.78;4989567;28;20113;-57
2023/09/09 09:51:43;;;;;;;23.20;20.05;;;;;;;23.38;66.10;101689.22;4990708;28;20038;-57
2023/09/09 09:54:09;;;;;;;18.83;16.80;;;;;;;23.39;66.04;101696.34;4990556;28;20094;-57
2023/09/09 09:56:38;;;;;;;19.30;15.73;;;;;;;23.38;65.85;101694.66;4989839;28;20073;-57
2023/09/09 09:59:05;;;;;;;22.95;19.05;;;;;;;23.40;65.97;101697.22;4989250;28;20077;-57
2023/09/09 10:01:32;;;;;;;15.93;14.32;;;;;;;23.40;65.85;101694.50;4989550;28;20117;-57
2023/09/09 10:04:05;;;;;;;17.60;15.70;;;;;;;23.41;66.13;101696.19;4989671;28;20377;-56
2023/09/09 10:06:34;;;;;;;17.58;15.48;;;;;;;23.41;65.88;101701.63;4988531;28;20042;-57
2023/09/09 10:09:22;;;;;;;16.45;14.80;;;;;;;23.44;66.15;101690.44;4988579;28;20041;-57
2023/09/09 10:11:56;;;;;;;16.13;14.43;;;;;;;23.42;66.32;101690.59;4990077;28;20456;-57
2023/09/09 10:14:25;;;;;;;17.85;15.95;;;;;;;23.43;66.61;101692.28;4986612;28;20100;-56
2023/09/09 10:16:53;;;;;;;18.17;15.77;;;;;;;23.42;66.06;101690.59;4988209;28;20477;-57
2023/09/09 10:19:20;;;;;;;16.83;14.93;;;;;;;23.43;66.77;101695.00;4987028;28;20027;-57
2023/09/09 10:21:47;;;;;;;15.95;14.35;;;;;;;23.43;66.66;101686.00;4988906;28;20117;-57
2023/09/09 10:24:15;;;;;;;16.23;14.57;;;;;;;23.44;66.18;101685.00;4990256;28;20081;-57
2023/09/09 10:26:41;;;;;;;16.77;15.07;;;;;;;23.45;66.27;101688.56;4990134;28;20030;-56
2023/09/09 10:29:08;;;;;;;19.50;15.00;;;;;;;23.46;66.44;101693.00;4989874;28;20464;-56
2023/09/09 10:31:34;;;;;;;15.93;14.25;;;;;;;23.46;66.46;101684.84;4988931;28;20476;-57
2023/09/09 10:34:02;;;;;;;18.15;14.30;;;;;;;23.47;66.70;101691.97;4988993;28;20058;-57
2023/09/09 10:36:30;;;;;;;15.27;13.50;;;;;;;23.47;66.58;101686.53;4989177;28;20391;-57
2023/09/09 10:38:56;;;;;;;13.05;11.07;;;;;;;23.47;66.12;101686.53;4988040;28;20026;-56
2023/09/09 10:41:21;;;;;;;12.48;11.18;;;;;;;23.49;66.31;101689.94;4987966;28;20034;-56
2023/09/09 10:43:47;;;;;;;13.65;12.25;;;;;;;23.49;66.45;101682.63;4987737;28;20038;-56
2023/09/09 10:46:13;;;;;;;13.60;11.68;;;;;;;23.49;66.18;101685.34;4987839;28;20066;-56
2023/09/09 10:48:38;;;;;;;13.43;12.02;;;;;;;23.51;66.32;101685.19;4988132;28;20037;-56
2023/09/09 10:51:06;;;;;;;11.10;9.93;;;;;;;23.50;66.31;101681.63;4988247;28;20054;-56
2023/09/09 10:53:32;;;;;;;11.25;10.02;;;;;;;23.51;66.32;101682.47;4988218;28;20097;-56
2023/09/09 10:56:00;;;;;;;11.38;10.20;;;;;;;23.51;66.16;101675.16;4988286;28;20073;-56
2023/09/09 10:58:37;;;;;;;10.35;9.27;;;;;;;23.53;66.27;101686.75;4987211;28;20052;-56
2023/09/09 11:01:05;;;;;;;9.88;8.88;;;;;;;23.52;66.25;101679.59;4987556;28;20466;-57
2023/09/09 11:03:40;;;;;;;9.30;8.40;;;;;;;23.54;65.86;101684.88;4988524;28;20409;-57
2023/09/09 11:06:18;;;;;;;10.25;8.27;;;;;;;23.53;66.08;101681.31;4984980;28;20038;-57
2023/09/09 11:08:47;;;;;;;9.50;8.50;;;;;;;23.55;66.09;101678.41;4988322;28;20068;-56